Terminal Aerodrome Forecast
Issued by NWS Corpus Christi, TX

Home | Current Version | Previous Version | Text Only | Print | Product List | Glossary On
Versions: 1 2 3 4 5 6 7 8 9 10 11 12 13
854
FTUS44 KCRP 120909 AAA
TAFVCT
TAF AMD
KVCT 120909Z 1209/1306 16004KT 1SM BR SCT008
      TEMPO 1210/1214 1/4SM FG BKN004
     FM121500 21008KT P6SM SCT035
     FM122200 15004KT P6SM SCT015=

USA.gov is the U.S. government's official web portal to all federal, state and local government web resources and services.